createdAt,value
2022-10-28T00:00:28.881Z,59.3
2022-10-28T00:02:12.585Z,59.3
2022-10-28T00:03:56.280Z,59.3
2022-10-28T00:05:39.987Z,59.3
2022-10-28T00:07:23.687Z,59.3
2022-10-28T00:09:07.388Z,59.3
2022-10-28T00:10:51.098Z,59.3
2022-10-28T00:12:34.784Z,59.3
2022-10-28T00:14:18.497Z,59.3
2022-10-28T00:16:02.203Z,59.3
2022-10-28T00:17:45.903Z,59.3
2022-10-28T00:19:29.601Z,59.3
2022-10-28T00:21:13.310Z,59.3
2022-10-28T00:22:57.007Z,59.3
2022-10-28T00:24:40.711Z,59.3
2022-10-28T00:26:24.421Z,59.3
2022-10-28T00:28:08.126Z,59.3
2022-10-28T00:29:51.827Z,59.3
2022-10-28T00:31:35.519Z,59.3
2022-10-28T00:33:19.226Z,59.3
2022-10-28T00:35:02.925Z,59.3
2022-10-28T00:36:46.633Z,59.3
2022-10-28T00:38:30.339Z,59.3
2022-10-28T00:40:14.036Z,59.3
2022-10-28T00:41:57.772Z,59.3
2022-10-28T00:43:41.460Z,59.3
2022-10-28T00:45:25.150Z,59.3
2022-10-28T00:47:08.857Z,59.3
2022-10-28T00:48:52.570Z,59.3
2022-10-28T00:50:36.258Z,59.3
2022-10-28T00:52:19.967Z,59.3
2022-10-28T00:54:03.657Z,59.3
2022-10-28T00:55:47.364Z,59.3
2022-10-28T00:57:31.060Z,59.3
2022-10-28T00:59:14.797Z,59.3
2022-10-28T01:00:58.482Z,59.3
2022-10-28T01:02:42.170Z,59.4
2022-10-28T01:04:25.876Z,59.3
2022-10-28T01:06:09.578Z,59.4
2022-10-28T01:07:53.284Z,59.4
2022-10-28T01:09:36.999Z,59.4
2022-10-28T01:11:20.686Z,59.4
2022-10-28T01:13:04.389Z,59.4
2022-10-28T01:14:48.095Z,59.4
2022-10-28T01:16:31.797Z,59.4
2022-10-28T01:18:15.496Z,59.4
2022-10-28T01:19:59.206Z,59.4
2022-10-28T01:21:42.920Z,59.4
2022-10-28T01:23:26.678Z,59.4
2022-10-28T01:25:10.321Z,59.4
2022-10-28T01:26:54.005Z,59.4
2022-10-28T01:28:37.709Z,59.4
2022-10-28T01:30:21.410Z,59.4
2022-10-28T01:32:05.121Z,59.4
2022-10-28T01:33:48.817Z,59.4
2022-10-28T01:35:32.519Z,59.4
2022-10-28T01:37:16.225Z,59.4
2022-10-28T01:38:59.989Z,59.4
2022-10-28T01:40:43.625Z,59.4
2022-10-28T01:42:27.345Z,59.4
2022-10-28T01:44:11.038Z,59.4
2022-10-28T01:45:54.735Z,59.4
2022-10-28T01:47:38.429Z,59.4
2022-10-28T01:49:22.134Z,59.4
2022-10-28T01:51:05.838Z,59.4
2022-10-28T01:52:49.538Z,59.4
2022-10-28T01:54:33.246Z,59.4
2022-10-28T01:56:16.963Z,59.4
2022-10-28T01:58:00.649Z,59.4
2022-10-28T01:59:44.352Z,59.4
2022-10-28T02:01:28.053Z,59.4
2022-10-28T02:03:11.755Z,59.4
2022-10-28T02:04:55.458Z,59.4
2022-10-28T02:06:39.171Z,59.4
2022-10-28T02:08:22.869Z,59.4
2022-10-28T02:10:06.562Z,59.4
2022-10-28T02:11:50.267Z,59.4
2022-10-28T02:13:33.971Z,59.4
2022-10-28T02:15:17.671Z,59.4
2022-10-28T02:17:01.374Z,59.4
2022-10-28T02:18:45.070Z,59.4
2022-10-28T02:20:28.782Z,59.4
2022-10-28T02:22:12.479Z,59.4
2022-10-28T02:23:56.185Z,59.4
2022-10-28T02:25:39.887Z,59.4
2022-10-28T02:27:23.590Z,59.4
2022-10-28T02:29:07.288Z,59.4
2022-10-28T02:30:50.994Z,59.4
2022-10-28T02:32:34.708Z,59.4
2022-10-28T02:34:18.394Z,59.4
2022-10-28T02:36:02.104Z,59.4
2022-10-28T02:37:45.801Z,59.4
2022-10-28T02:39:29.508Z,59.4
2022-10-28T02:41:13.214Z,59.4
2022-10-28T02:42:56.908Z,59.4
2022-10-28T02:44:40.625Z,59.4
2022-10-28T02:46:24.312Z,59.4
2022-10-28T02:48:08.016Z,59.4
2022-10-28T02:49:51.737Z,59.4
2022-10-28T02:51:35.420Z,59.4
2022-10-28T02:53:19.118Z,59.4
2022-10-28T02:55:02.833Z,59.4
2022-10-28T02:56:46.530Z,59.4
2022-10-28T02:58:30.231Z,59.4
2022-10-28T03:00:13.933Z,59.4
2022-10-28T03:01:57.645Z,59.4
2022-10-28T03:03:41.345Z,59.4
2022-10-28T03:05:25.039Z,59.4
2022-10-28T03:07:08.753Z,59.4
2022-10-28T03:08:52.453Z,59.5
2022-10-28T03:10:36.143Z,59.5
2022-10-28T03:12:19.876Z,59.5
2022-10-28T03:14:03.550Z,59.4
2022-10-28T03:15:47.253Z,59.4
2022-10-28T03:17:30.963Z,59.4
2022-10-28T03:19:14.651Z,59.4
2022-10-28T03:20:58.358Z,59.4
2022-10-28T03:22:42.065Z,59.4
2022-10-28T03:24:25.763Z,59.5
2022-10-28T03:26:09.473Z,59.5
2022-10-28T03:29:36.864Z,59.4
2022-10-28T03:31:20.573Z,59.4
2022-10-28T03:33:04.272Z,59.4
2022-10-28T03:34:47.974Z,59.4
2022-10-28T03:36:31.675Z,59.4
2022-10-28T03:38:15.376Z,59.4
2022-10-28T03:39:59.083Z,59.4
2022-10-28T03:41:42.778Z,59.4
2022-10-28T03:43:26.509Z,59.4
2022-10-28T03:45:10.211Z,59.4
2022-10-28T03:46:53.886Z,59.4
2022-10-28T03:48:37.599Z,59.4
2022-10-28T03:50:21.287Z,59.5
2022-10-28T03:52:05.002Z,59.4
2022-10-28T03:53:48.700Z,59.4
2022-10-28T03:55:32.393Z,59.4
2022-10-28T03:57:16.112Z,59.4
2022-10-28T03:58:59.804Z,59.4
2022-10-28T04:00:43.513Z,59.4
2022-10-28T04:02:27.216Z,59.4
2022-10-28T04:04:10.912Z,59.4
2022-10-28T04:05:54.620Z,59.4
2022-10-28T04:07:38.317Z,59.4
2022-10-28T04:09:22.028Z,59.4
2022-10-28T04:11:05.718Z,59.4
2022-10-28T04:12:49.420Z,59.4
2022-10-28T04:14:33.128Z,59.4
2022-10-28T04:16:16.829Z,59.4
2022-10-28T04:18:00.565Z,59.7
2022-10-28T04:19:44.281Z,59.6
2022-10-28T04:21:27.937Z,59.5
2022-10-28T04:23:11.667Z,59.5
2022-10-28T04:24:55.344Z,59.5
2022-10-28T04:26:39.063Z,59.5
2022-10-28T04:28:22.749Z,59.8
2022-10-28T04:30:06.447Z,59.9
2022-10-28T04:31:50.151Z,60
2022-10-28T04:33:33.846Z,60
2022-10-28T04:35:17.553Z,60
2022-10-28T04:37:01.255Z,60
2022-10-28T04:38:44.957Z,60
2022-10-28T04:40:28.654Z,59.9
2022-10-28T04:42:12.398Z,60.8
2022-10-28T04:43:56.065Z,61.6
2022-10-28T04:45:39.762Z,62.3
2022-10-28T04:47:23.463Z,62.6
2022-10-28T04:49:07.166Z,62
2022-10-28T04:50:50.878Z,61.6
2022-10-28T04:52:34.581Z,61.6
2022-10-28T04:54:18.270Z,61.8
2022-10-28T04:56:02.000Z,61.9
2022-10-28T04:57:45.678Z,61.8
2022-10-28T04:59:29.381Z,61.7
2022-10-28T05:01:13.086Z,61.6
2022-10-28T05:04:40.505Z,61.5
2022-10-28T05:06:24.195Z,61.5
2022-10-28T05:08:07.953Z,61.5
2022-10-28T05:09:51.604Z,61.4
2022-10-28T05:11:35.323Z,61.4
2022-10-28T05:13:19.008Z,61.4
2022-10-28T05:15:02.706Z,61.4
2022-10-28T05:16:46.404Z,61.3
2022-10-28T05:18:30.181Z,61.3
2022-10-28T05:20:13.816Z,61.3
2022-10-28T05:21:57.511Z,61.3
2022-10-28T05:23:41.222Z,61.3
2022-10-28T05:25:24.926Z,61.2
2022-10-28T05:27:08.622Z,61.1
2022-10-28T05:28:52.323Z,61.1
2022-10-28T05:30:36.025Z,61.1
2022-10-28T05:32:19.728Z,61.2
2022-10-28T05:34:03.438Z,61.3
2022-10-28T05:35:47.134Z,61.3
2022-10-28T05:37:30.847Z,61.3
2022-10-28T05:39:14.563Z,61.4
2022-10-28T05:40:58.253Z,61.5
2022-10-28T05:42:41.959Z,61.5
2022-10-28T05:44:25.644Z,61.6
2022-10-28T05:46:09.346Z,61.6
2022-10-28T05:47:53.051Z,61.4
2022-10-28T05:49:36.756Z,61.1
2022-10-28T05:51:20.466Z,61
2022-10-28T05:53:04.213Z,60.9
2022-10-28T05:54:47.864Z,61.2
2022-10-28T05:56:31.570Z,61.2
2022-10-28T05:58:15.262Z,61.1
2022-10-28T05:59:58.971Z,61
2022-10-28T06:01:42.665Z,61.2
2022-10-28T06:03:26.375Z,60.8
2022-10-28T06:05:10.087Z,60.6
2022-10-28T06:06:53.839Z,60.7
2022-10-28T06:08:37.543Z,61
2022-10-28T06:10:21.214Z,60.9
2022-10-28T06:12:03.342Z,60.7
2022-10-28T06:13:47.052Z,61.3
2022-10-28T06:15:30.754Z,60.8
2022-10-28T06:17:14.470Z,60.5
2022-10-28T06:18:58.159Z,60.3
2022-10-28T06:20:41.856Z,60.2
2022-10-28T06:22:25.618Z,60.2
2022-10-28T06:24:09.276Z,60.3
2022-10-28T06:25:52.978Z,59.8
2022-10-28T06:27:36.714Z,59.4
2022-10-28T06:29:20.417Z,59.3
2022-10-28T06:31:04.091Z,59.2
2022-10-28T06:32:47.851Z,59.2
2022-10-28T06:34:31.518Z,58.9
2022-10-28T06:36:15.199Z,58.6
2022-10-28T06:37:58.907Z,58.6
2022-10-28T06:39:42.627Z,58.6
2022-10-28T06:41:26.306Z,58.7
2022-10-28T06:43:10.014Z,58.7
2022-10-28T06:44:53.719Z,58.8
2022-10-28T06:46:38.936Z,58.9
2022-10-28T06:48:22.629Z,58.9
2022-10-28T06:50:06.334Z,58.9
2022-10-28T06:51:50.047Z,58.9
2022-10-28T06:53:33.745Z,59
2022-10-28T06:55:17.450Z,58.9
2022-10-28T06:57:01.147Z,58.9
2022-10-28T06:58:44.856Z,59
2022-10-28T07:00:28.595Z,59
2022-10-28T07:02:12.265Z,59
2022-10-28T07:03:55.973Z,59
2022-10-28T07:05:39.683Z,59
2022-10-28T07:07:23.369Z,59.1
2022-10-28T07:09:07.136Z,59
2022-10-28T07:10:50.782Z,59.1
2022-10-28T07:12:34.515Z,59.1
2022-10-28T07:14:18.267Z,59.1
2022-10-28T07:16:01.916Z,59.1
2022-10-28T07:17:45.596Z,59.1
2022-10-28T07:19:29.304Z,59.1
2022-10-28T07:21:13.005Z,59.1
2022-10-28T07:22:56.733Z,59.1
2022-10-28T07:24:40.408Z,59.1
2022-10-28T07:26:24.129Z,59.1
2022-10-28T07:28:07.849Z,59.1
2022-10-28T07:29:51.519Z,59.1
2022-10-28T07:31:35.229Z,59.1
2022-10-28T07:33:18.930Z,59.1
2022-10-28T07:35:02.629Z,59.1
2022-10-28T07:36:46.339Z,59.2
2022-10-28T07:38:30.047Z,59.2
2022-10-28T07:40:13.744Z,59.1
2022-10-28T07:41:57.477Z,59.1
2022-10-28T07:43:41.151Z,59.1
2022-10-28T07:45:24.852Z,59.1
2022-10-28T07:47:08.557Z,59.1
2022-10-28T07:48:52.258Z,59.1
2022-10-28T07:50:35.996Z,59.1
2022-10-28T07:52:19.726Z,59.2
2022-10-28T07:54:03.374Z,59.2
2022-10-28T07:55:47.070Z,59.2
2022-10-28T07:57:30.764Z,59.2
2022-10-28T07:59:14.475Z,59.1
2022-10-28T08:00:58.196Z,59.1
2022-10-28T08:02:41.900Z,59.2
2022-10-28T08:04:25.568Z,59.2
2022-10-28T08:06:09.260Z,59.2
2022-10-28T08:07:53.035Z,59.2
2022-10-28T08:09:36.702Z,59.2
2022-10-28T08:11:20.360Z,59.2
2022-10-28T08:13:04.071Z,59.2
2022-10-28T08:14:47.773Z,59.2
2022-10-28T08:16:31.459Z,59.2
2022-10-28T08:18:15.218Z,59.2
2022-10-28T08:19:58.865Z,59.1
2022-10-28T08:21:42.568Z,59.1
2022-10-28T08:23:26.262Z,59.2
2022-10-28T08:25:09.965Z,59.1
2022-10-28T08:26:53.662Z,59.1
2022-10-28T08:28:37.377Z,59.2
2022-10-28T08:30:21.075Z,59.2
2022-10-28T08:32:04.771Z,59.2
2022-10-28T08:33:48.563Z,59.2
2022-10-28T08:35:32.170Z,59.2
2022-10-28T08:37:15.887Z,59.2
2022-10-28T08:38:59.571Z,59.2
2022-10-28T08:40:43.282Z,59.2
2022-10-28T08:42:26.983Z,59.1
2022-10-28T08:44:10.686Z,59.2
2022-10-28T08:45:54.425Z,59.1
2022-10-28T08:47:38.095Z,59.2
2022-10-28T08:49:21.795Z,59.1
2022-10-28T08:51:05.496Z,59.1
2022-10-28T08:52:49.211Z,59.1
2022-10-28T08:54:32.909Z,59.1
2022-10-28T08:56:16.601Z,59.1
2022-10-28T08:58:00.304Z,59.1
2022-10-28T08:59:44.013Z,59.1
2022-10-28T09:01:27.708Z,59.1
2022-10-28T09:03:11.420Z,59
2022-10-28T09:04:55.126Z,59
2022-10-28T09:06:38.816Z,59
2022-10-28T09:08:22.521Z,59
2022-10-28T09:10:06.291Z,59.2
2022-10-28T09:11:49.924Z,59.4
2022-10-28T09:13:33.632Z,59.2
2022-10-28T09:15:17.328Z,59.1
2022-10-28T09:17:01.031Z,59
2022-10-28T09:18:44.738Z,58.9
2022-10-28T09:20:28.433Z,58.9
2022-10-28T09:22:12.199Z,58.9
2022-10-28T09:23:55.851Z,58.9
2022-10-28T09:25:39.543Z,58.9
2022-10-28T09:27:23.253Z,58.9
2022-10-28T09:29:06.955Z,58.9
2022-10-28T09:30:50.654Z,58.9
2022-10-28T09:32:34.353Z,58.9
2022-10-28T09:34:18.088Z,58.9
2022-10-28T09:36:01.778Z,58.8
2022-10-28T09:37:45.455Z,58.8
2022-10-28T09:39:29.213Z,58.8
2022-10-28T09:41:12.888Z,58.8
2022-10-28T09:42:56.560Z,58.8
2022-10-28T09:44:40.271Z,58.8
2022-10-28T09:46:23.970Z,58.8
2022-10-28T09:48:07.683Z,58.8
2022-10-28T09:49:51.392Z,58.8
2022-10-28T09:51:35.072Z,58.7
2022-10-28T09:53:18.835Z,58.7
2022-10-28T09:55:02.484Z,59
2022-10-28T09:56:46.185Z,59.1
2022-10-28T09:58:29.948Z,59.1
2022-10-28T10:00:13.622Z,58.8
2022-10-28T10:01:57.335Z,59
2022-10-28T10:03:40.992Z,58.9
2022-10-28T10:05:24.696Z,58.8
2022-10-28T10:07:08.435Z,58.8
2022-10-28T10:08:52.114Z,58.9
2022-10-28T10:10:35.810Z,58.8
2022-10-28T10:12:19.513Z,58.7
2022-10-28T10:14:03.217Z,58.7
2022-10-28T10:15:46.916Z,58.7
2022-10-28T10:17:30.619Z,58.6
2022-10-28T10:19:14.325Z,58.7
2022-10-28T10:20:58.023Z,58.7
2022-10-28T10:22:41.727Z,58.6
2022-10-28T10:24:25.418Z,58.6
2022-10-28T10:26:09.138Z,58.6
2022-10-28T10:27:52.830Z,58.5
2022-10-28T10:29:36.593Z,58.5
2022-10-28T10:31:20.241Z,58.6
2022-10-28T10:33:03.935Z,59.3
2022-10-28T10:34:47.638Z,59.1
2022-10-28T10:36:31.359Z,58.9
2022-10-28T10:38:15.043Z,58.8
2022-10-28T10:39:58.746Z,59
2022-10-28T10:41:42.448Z,58.7
2022-10-28T10:43:26.144Z,58.6
2022-10-28T10:45:09.855Z,58.9
2022-10-28T10:46:53.558Z,58.9
2022-10-28T10:48:37.287Z,58.8
2022-10-28T10:50:20.957Z,59.1
2022-10-28T10:52:04.655Z,58.8
2022-10-28T10:53:48.363Z,58.8
2022-10-28T10:55:32.076Z,58.9
2022-10-28T10:57:15.762Z,58.4
2022-10-28T10:58:59.467Z,58.7
2022-10-28T11:00:43.163Z,58.7
2022-10-28T11:02:26.893Z,58.8
2022-10-28T11:04:10.583Z,59
2022-10-28T11:05:54.280Z,59
2022-10-28T11:07:37.983Z,59.6
2022-10-28T11:09:21.695Z,59.5
2022-10-28T11:11:05.381Z,59.7
2022-10-28T11:12:49.117Z,59.6
2022-10-28T11:14:32.787Z,59.8
2022-10-28T11:16:16.496Z,61.3
2022-10-28T11:18:00.199Z,61.4
2022-10-28T11:19:43.902Z,61.2
2022-10-28T11:21:27.620Z,61
2022-10-28T11:23:11.351Z,60.9
2022-10-28T11:24:55.003Z,60.6
2022-10-28T11:26:38.709Z,60.4
2022-10-28T11:28:22.413Z,60.2
2022-10-28T11:30:06.122Z,60.1
2022-10-28T11:31:49.841Z,59.9
2022-10-28T11:33:33.511Z,59.7
2022-10-28T11:35:17.217Z,59.7
2022-10-28T11:37:00.931Z,59.7
2022-10-28T11:38:44.626Z,59.6
2022-10-28T11:40:28.330Z,59.5
2022-10-28T11:42:12.023Z,59.8
2022-10-28T11:43:55.796Z,59.7
2022-10-28T11:45:39.459Z,59.9
2022-10-28T11:47:23.140Z,59.7
2022-10-28T11:49:06.832Z,59.3
2022-10-28T11:50:50.548Z,59.3
2022-10-28T11:52:34.279Z,59.4
2022-10-28T11:54:17.956Z,59.4
2022-10-28T11:56:01.656Z,59.4
2022-10-28T11:57:45.400Z,59.3
2022-10-28T11:59:29.057Z,59.2
2022-10-28T12:01:12.753Z,59.2
2022-10-28T12:02:56.469Z,59.2
2022-10-28T12:04:40.168Z,59.1
2022-10-28T12:06:23.893Z,59.1
2022-10-28T12:08:07.567Z,59
2022-10-28T12:09:51.266Z,59
2022-10-28T12:11:34.968Z,59
2022-10-28T12:13:18.672Z,59
2022-10-28T12:15:02.388Z,59
2022-10-28T12:18:29.774Z,58.9
2022-10-28T12:20:13.538Z,58.9
2022-10-28T12:21:57.223Z,58.9
2022-10-28T12:23:40.587Z,58.8
2022-10-28T12:25:24.282Z,58.4
2022-10-28T12:27:07.988Z,57.1
2022-10-28T12:28:51.685Z,55.8
2022-10-28T12:30:35.397Z,55.2
2022-10-28T12:32:19.114Z,55.5
2022-10-28T12:34:02.793Z,55.3
2022-10-28T12:35:46.510Z,55.4
2022-10-28T12:37:30.218Z,55.4
2022-10-28T12:39:13.914Z,55.4
2022-10-28T12:40:57.616Z,55.5
2022-10-28T12:42:41.301Z,55.5
2022-10-28T12:44:25.010Z,55.5
2022-10-28T12:46:08.707Z,55.6
2022-10-28T12:47:52.411Z,55.7
2022-10-28T12:49:36.116Z,55.8
2022-10-28T12:51:19.809Z,55.9
2022-10-28T12:53:03.521Z,55.9
2022-10-28T12:54:47.221Z,56
2022-10-28T12:56:30.940Z,56.1
2022-10-28T12:58:14.703Z,56.1
2022-10-28T12:59:58.325Z,56.1
2022-10-28T13:01:42.078Z,56.2
2022-10-28T13:03:25.728Z,56.3
2022-10-28T13:05:09.438Z,56.4
2022-10-28T13:06:53.234Z,56.5
2022-10-28T13:08:36.863Z,56.5
2022-10-28T13:10:20.583Z,56.6
2022-10-28T13:12:04.249Z,56.6
2022-10-28T13:13:47.952Z,56.6
2022-10-28T13:15:31.679Z,56.6
2022-10-28T13:17:15.360Z,56.6
2022-10-28T13:18:59.052Z,56.6
2022-10-28T13:20:42.771Z,56.6
2022-10-28T13:22:26.470Z,56.7
2022-10-28T13:24:10.171Z,56.7
2022-10-28T13:25:53.873Z,56.7
2022-10-28T13:27:37.587Z,56.7
2022-10-28T13:29:21.269Z,56.6
2022-10-28T13:31:04.989Z,56.6
2022-10-28T13:32:48.684Z,56.6
2022-10-28T13:34:32.430Z,56.7
2022-10-28T13:36:16.137Z,56.7
2022-10-28T13:37:59.805Z,56.8
2022-10-28T13:39:43.484Z,56.9
2022-10-28T13:41:27.204Z,56.9
2022-10-28T13:43:10.887Z,56.9
2022-10-28T13:44:54.607Z,57
2022-10-28T13:46:38.335Z,57.1
2022-10-28T13:48:21.992Z,57.1
2022-10-28T13:50:05.693Z,57.1
2022-10-28T13:51:49.400Z,57.2
2022-10-28T13:53:33.104Z,57.2
2022-10-28T13:55:16.801Z,57.2
2022-10-28T13:57:00.504Z,57.2
2022-10-28T13:58:44.212Z,57.3
2022-10-28T14:00:27.909Z,57.3
2022-10-28T14:02:11.630Z,57.3
2022-10-28T14:03:55.318Z,57.3
2022-10-28T14:05:39.135Z,57.3
2022-10-28T14:07:22.760Z,57.4
2022-10-28T14:09:06.422Z,57.4
2022-10-28T14:10:50.128Z,57.4
2022-10-28T14:12:33.829Z,57.4
2022-10-28T14:14:17.569Z,57.4
2022-10-28T14:16:01.234Z,57.4
2022-10-28T14:17:44.933Z,57.5
2022-10-28T14:19:28.655Z,57.5
2022-10-28T14:21:12.343Z,57.5
2022-10-28T14:22:56.041Z,57.6
2022-10-28T14:24:39.753Z,57.6
2022-10-28T14:26:23.455Z,57.6
2022-10-28T14:28:07.156Z,57.5
2022-10-28T14:29:50.886Z,57.5
2022-10-28T14:31:34.557Z,57.5
2022-10-28T14:33:18.263Z,57.6
2022-10-28T14:35:01.973Z,57.6
2022-10-28T14:36:45.662Z,57.7
2022-10-28T14:38:29.367Z,57.7
2022-10-28T14:40:13.069Z,57.8
2022-10-28T14:41:56.772Z,57.8
2022-10-28T14:43:40.487Z,57.9
2022-10-28T14:45:24.187Z,57.9
2022-10-28T14:47:07.882Z,57.9
2022-10-28T14:48:51.595Z,58
2022-10-28T14:50:35.300Z,58
2022-10-28T14:52:18.988Z,58
2022-10-28T14:54:02.708Z,58.1
2022-10-28T14:55:46.378Z,58.1
2022-10-28T14:57:30.088Z,58.1
2022-10-28T14:59:13.787Z,58.2
2022-10-28T15:00:57.490Z,58.2
2022-10-28T15:02:41.222Z,58.3
2022-10-28T15:04:24.891Z,58.3
2022-10-28T15:06:08.595Z,58.3
2022-10-28T15:07:52.307Z,58.4
2022-10-28T15:09:36.043Z,58.4
2022-10-28T15:11:19.705Z,58.5
2022-10-28T15:13:03.405Z,58.6
2022-10-28T15:14:47.120Z,58.6
2022-10-28T15:16:30.813Z,58.6
2022-10-28T15:18:14.516Z,58.6
2022-10-28T15:19:58.215Z,58.6
2022-10-28T15:21:41.915Z,58.6
2022-10-28T15:23:25.620Z,58.5
2022-10-28T15:25:09.324Z,58.5
2022-10-28T15:26:53.019Z,58.6
2022-10-28T15:28:36.719Z,58.6
2022-10-28T15:30:20.429Z,58.5
2022-10-28T15:32:04.125Z,58.5
2022-10-28T15:33:47.829Z,58.5
2022-10-28T15:35:31.537Z,58.5
2022-10-28T15:37:15.235Z,58.6
2022-10-28T15:38:58.968Z,58.7
2022-10-28T15:40:42.637Z,58.7
2022-10-28T15:42:26.338Z,58.7
2022-10-28T15:44:10.048Z,58.7
2022-10-28T15:45:53.750Z,58.9
2022-10-28T15:47:37.451Z,58.8
2022-10-28T15:49:21.153Z,58.8
2022-10-28T15:51:04.852Z,59
2022-10-28T15:52:48.557Z,59
2022-10-28T15:54:32.248Z,59.1
2022-10-28T15:56:15.950Z,59.2
2022-10-28T15:57:59.669Z,59.3
2022-10-28T15:59:43.360Z,59.4
2022-10-28T16:01:27.064Z,59.4
2022-10-28T16:03:10.765Z,59.5
2022-10-28T16:04:54.470Z,59.6
2022-10-28T16:06:38.175Z,59.7
2022-10-28T16:08:21.869Z,59.7
2022-10-28T16:10:05.567Z,59.7
2022-10-28T16:11:49.270Z,59.7
2022-10-28T16:13:32.972Z,59.7
2022-10-28T16:15:16.692Z,59.6
2022-10-28T16:17:00.382Z,59.6
2022-10-28T16:18:44.103Z,59.5
2022-10-28T16:20:27.841Z,59.5
2022-10-28T16:22:11.502Z,59.5
2022-10-28T16:23:55.190Z,59.5
2022-10-28T16:25:38.889Z,59.5
2022-10-28T16:27:22.615Z,59.5
2022-10-28T16:29:06.300Z,59.5
2022-10-28T16:30:49.993Z,59.5
2022-10-28T16:32:33.737Z,59.5
2022-10-28T16:34:17.406Z,59.5
2022-10-28T16:36:01.111Z,59.4
2022-10-28T16:37:44.815Z,59.4
2022-10-28T16:39:28.540Z,59.4
2022-10-28T16:41:12.215Z,59.4
2022-10-28T16:42:55.924Z,59.4
2022-10-28T16:44:39.615Z,59.4
2022-10-28T16:46:23.320Z,59.5
2022-10-28T16:48:07.028Z,59.5
2022-10-28T16:49:50.735Z,59.5
2022-10-28T16:51:34.450Z,59.5
2022-10-28T16:53:18.133Z,59.5
2022-10-28T16:55:01.849Z,59.4
2022-10-28T16:56:45.549Z,59.5
2022-10-28T16:58:29.246Z,59.5
2022-10-28T17:00:12.940Z,59.5
2022-10-28T17:01:56.674Z,59.5
2022-10-28T17:03:40.347Z,59.5
2022-10-28T17:05:24.059Z,59.5
2022-10-28T17:07:07.750Z,59.5
2022-10-28T17:08:51.477Z,59.5
2022-10-28T17:10:35.163Z,59.5
2022-10-28T17:12:18.855Z,59.5
2022-10-28T17:14:02.568Z,59.5
2022-10-28T17:15:46.277Z,59.5
2022-10-28T17:17:29.966Z,59.5
2022-10-28T17:19:13.691Z,59.5
2022-10-28T17:20:57.365Z,59.5
2022-10-28T17:22:41.094Z,59.5
2022-10-28T17:24:24.774Z,59.5
2022-10-28T17:26:08.475Z,59.5
2022-10-28T17:27:52.195Z,59.5
2022-10-28T17:29:35.990Z,59.5
2022-10-28T17:31:19.584Z,59.5
2022-10-28T17:33:03.287Z,59.4
2022-10-28T17:34:46.988Z,59.4
2022-10-28T17:36:30.689Z,59.4
2022-10-28T17:38:14.406Z,59.4
2022-10-28T17:39:58.112Z,59.4
2022-10-28T17:41:41.800Z,59.4
2022-10-28T17:43:25.505Z,59.4
2022-10-28T17:45:09.213Z,59.4
2022-10-28T17:46:52.916Z,59.4
2022-10-28T17:48:36.677Z,59.4
2022-10-28T17:50:20.308Z,59.4
2022-10-28T17:52:04.021Z,59.3
2022-10-28T17:53:47.743Z,59.3
2022-10-28T17:55:31.419Z,59.3
2022-10-28T17:57:15.124Z,59.3
2022-10-28T17:58:58.816Z,59.3
2022-10-28T18:00:42.526Z,59.3
2022-10-28T18:02:26.219Z,59.3
2022-10-28T18:04:09.960Z,59.2
2022-10-28T18:05:53.626Z,59.2
2022-10-28T18:07:37.418Z,59.2
2022-10-28T18:09:21.073Z,59.2
2022-10-28T18:11:04.731Z,59.2
2022-10-28T18:12:48.463Z,59.2
2022-10-28T18:14:32.209Z,59.2
2022-10-28T18:16:15.841Z,59.1
2022-10-28T18:17:59.537Z,59.2
2022-10-28T18:19:43.250Z,59.3
2022-10-28T18:21:26.951Z,59.4
2022-10-28T18:23:10.657Z,59.4
2022-10-28T18:24:54.350Z,59.3
2022-10-28T18:26:38.062Z,59.3
2022-10-28T18:28:21.757Z,59.3
2022-10-28T18:30:05.489Z,59.2
2022-10-28T18:31:49.174Z,59.2
2022-10-28T18:33:32.895Z,59.2
2022-10-28T18:35:16.588Z,59.2
2022-10-28T18:37:00.271Z,59.2
2022-10-28T18:40:27.672Z,59.2
2022-10-28T18:42:11.392Z,59.7
2022-10-28T18:43:55.143Z,61
2022-10-28T18:45:38.779Z,60.9
2022-10-28T18:47:22.481Z,60.5
2022-10-28T18:49:06.186Z,60.5
2022-10-28T18:50:49.921Z,60.4
2022-10-28T18:52:33.648Z,60.7
2022-10-28T18:54:17.284Z,60.8
2022-10-28T18:56:01.081Z,60.6
2022-10-28T18:57:44.773Z,60.6
2022-10-28T18:59:28.492Z,60.5
2022-10-28T19:01:12.108Z,60.5
2022-10-28T19:02:55.844Z,60.5
2022-10-28T19:04:39.506Z,60.6
2022-10-28T19:06:23.220Z,60.4
2022-10-28T19:08:06.914Z,60.4
2022-10-28T19:09:50.626Z,60.4
2022-10-28T19:11:34.323Z,60.5
2022-10-28T19:13:18.068Z,60.4
2022-10-28T19:15:01.728Z,60.3
2022-10-28T19:16:45.444Z,60.4
2022-10-28T19:18:29.155Z,60.4
2022-10-28T19:20:12.831Z,60.4
2022-10-28T19:21:56.616Z,60.4
2022-10-28T19:23:40.245Z,60.4
2022-10-28T19:25:23.932Z,60.3
2022-10-28T19:27:07.634Z,60.2
2022-10-28T19:28:51.346Z,60.5
2022-10-28T19:30:35.060Z,60.6
2022-10-28T19:32:18.772Z,60.6
2022-10-28T19:34:02.466Z,60.4
2022-10-28T19:35:46.156Z,60.5
2022-10-28T19:37:29.850Z,60.3
2022-10-28T19:39:13.612Z,60.4
2022-10-28T19:40:57.253Z,60.4
2022-10-28T19:42:40.976Z,60.3
2022-10-28T19:44:24.667Z,60
2022-10-28T19:46:08.415Z,60
2022-10-28T19:47:52.076Z,59.9
2022-10-28T19:49:35.770Z,59.9
2022-10-28T19:51:19.474Z,59.9
2022-10-28T19:53:03.174Z,59.6
2022-10-28T19:54:46.923Z,59.7
2022-10-28T19:56:30.630Z,59.7
2022-10-28T19:58:14.309Z,59.7
2022-10-28T19:59:57.988Z,59.7
2022-10-28T20:01:41.685Z,59.7
2022-10-28T20:03:25.400Z,59.7
2022-10-28T20:05:09.097Z,59.6
2022-10-28T20:06:52.791Z,59.7
2022-10-28T20:08:36.506Z,59.7
2022-10-28T20:10:20.198Z,59.6
2022-10-28T20:12:03.930Z,59.6
2022-10-28T20:13:47.636Z,59.6
2022-10-28T20:15:31.318Z,59.7
2022-10-28T20:17:15.089Z,59.6
2022-10-28T20:18:58.787Z,59.6
2022-10-28T20:20:42.418Z,59.6
2022-10-28T20:22:26.165Z,59.6
2022-10-28T20:24:09.850Z,59.7
2022-10-28T20:25:53.524Z,59.6
2022-10-28T20:27:37.254Z,59.6
2022-10-28T20:29:20.943Z,59.6
2022-10-28T20:31:04.634Z,59.6
2022-10-28T20:34:32.028Z,59.6
2022-10-28T20:36:15.800Z,59.6
2022-10-28T20:37:59.432Z,59.6
2022-10-28T20:39:43.165Z,59.6
2022-10-28T20:41:26.869Z,59.6
2022-10-28T20:43:10.543Z,59.6
2022-10-28T20:44:54.242Z,59.6
2022-10-28T20:46:38.019Z,59.6
2022-10-28T20:48:21.675Z,59.6
2022-10-28T20:50:05.357Z,59.6
2022-10-28T20:51:49.081Z,59.6
2022-10-28T20:53:32.781Z,59.6
2022-10-28T20:55:16.547Z,59.6
2022-10-28T20:57:00.216Z,59.6
2022-10-28T20:58:43.931Z,59.6
2022-10-28T21:00:27.585Z,59.6
2022-10-28T21:02:11.282Z,59.5
2022-10-28T21:03:55.029Z,59.6
2022-10-28T21:05:38.670Z,59.6
2022-10-28T21:07:22.392Z,59.6
2022-10-28T21:09:06.089Z,59.6
2022-10-28T21:10:49.813Z,59.6
2022-10-28T21:12:33.536Z,59.6
2022-10-28T21:14:17.226Z,59.6
2022-10-28T21:16:00.886Z,59.6
2022-10-28T21:17:44.594Z,59.6
2022-10-28T21:19:28.284Z,59.6
2022-10-28T21:21:11.995Z,59.6
2022-10-28T21:22:55.766Z,59.6
2022-10-28T21:24:39.504Z,59.6
2022-10-28T21:26:23.105Z,59.6
2022-10-28T21:28:06.832Z,59.6
2022-10-28T21:29:50.518Z,59.6
2022-10-28T21:31:34.211Z,59.5
2022-10-28T21:33:17.905Z,59.6
2022-10-28T21:35:01.640Z,59.6
2022-10-28T21:36:45.312Z,59.6
2022-10-28T21:38:29.008Z,59.5
2022-10-28T21:40:12.732Z,59.6
2022-10-28T21:41:56.420Z,59.5
2022-10-28T21:43:40.156Z,59.6
2022-10-28T21:45:23.839Z,59.6
2022-10-28T21:47:07.522Z,59.5
2022-10-28T21:48:51.235Z,59.7
2022-10-28T21:50:34.938Z,59.9
2022-10-28T21:52:18.654Z,60
2022-10-28T21:54:02.355Z,60.1
2022-10-28T21:55:46.048Z,60
2022-10-28T21:57:29.737Z,59.8
2022-10-28T21:59:13.510Z,59.8
2022-10-28T22:00:57.146Z,59.8
2022-10-28T22:02:40.847Z,59.7
2022-10-28T22:04:24.550Z,59.7
2022-10-28T22:06:08.279Z,59.6
2022-10-28T22:07:51.951Z,59.6
2022-10-28T22:09:35.682Z,59.7
2022-10-28T22:11:19.359Z,59.6
2022-10-28T22:13:03.083Z,59.6
2022-10-28T22:14:46.787Z,59.6
2022-10-28T22:16:30.471Z,59.6
2022-10-28T22:18:14.186Z,59.6
2022-10-28T22:19:57.890Z,59.6
2022-10-28T22:21:41.575Z,59.6
2022-10-28T22:23:25.325Z,59.5
2022-10-28T22:25:08.977Z,59.5
2022-10-28T22:26:52.682Z,59.6
2022-10-28T22:28:36.403Z,59.5
2022-10-28T22:30:20.082Z,59.5
2022-10-28T22:32:03.787Z,59.5
2022-10-28T22:33:47.499Z,59.5
2022-10-28T22:35:31.195Z,59.5
2022-10-28T22:37:14.886Z,59.5
2022-10-28T22:38:58.592Z,59.5
2022-10-28T22:40:42.328Z,59.5
2022-10-28T22:42:26.005Z,59.5
2022-10-28T22:44:09.749Z,59.5
2022-10-28T22:45:53.395Z,59.5
2022-10-28T22:47:37.106Z,59.5
2022-10-28T22:49:20.833Z,59.5
2022-10-28T22:51:04.511Z,59.5
2022-10-28T22:52:48.214Z,59.5
2022-10-28T22:54:31.909Z,59.5
2022-10-28T22:56:15.614Z,59.5
2022-10-28T22:57:59.330Z,59.5
2022-10-28T22:59:43.012Z,59.5
2022-10-28T23:01:26.739Z,59.5
2022-10-28T23:03:10.450Z,59.4
2022-10-28T23:04:54.120Z,59.4
2022-10-28T23:06:37.832Z,59.4
2022-10-28T23:08:21.524Z,59.4
2022-10-28T23:10:05.234Z,59.4
2022-10-28T23:11:48.932Z,59.4
2022-10-28T23:13:32.634Z,59.4